Nashville, TN (37244)

9:52 AM CDT on July 23, 2016 (GMT -0500)
APRSWXNET | | Change Station
Active Advisory: Heat Advisory Active Notice: Local Storm Report

Elev 551 ft 36.14 °N, 86.80 °W | Updated 17 minutes ago

Mostly Cloudy
Mostly Cloudy
83 °F
Feels Like 91 °F
N
1
Wind Variable Wind from South
Gusts 0.0 mph

Today
High -- | Low -- °F
--% Chance of Precip.
Yesterday
High -- | Low -- °F
Precip. -- in
Pressure 30.01 in
Visibility 8.0 miles
Clouds Few 18000 ft
Mostly Cloudy 22000 ft
Mostly Cloudy 25000 ft
Heat Index 91 °F
Dew Point 76 °F
Humidity 79%
Rainfall in
Snow Depth Not available.
5:47 AM 7:59 PM
Waning Gibbous, 85% visible
METAR KBNA 231353Z 00000KT 8SM FEW180 BKN220 BKN250 28/24 A3003 RMK AO2 SLP160 T02830239
Pressure 30.01 in
Visibility 8.0 miles
Clouds Few 18000 ft
Mostly Cloudy 22000 ft
Mostly Cloudy 25000 ft
Heat Index 91 °F
Dew Point 76 °F
Humidity 79%
Rainfall in
Snow Depth Not available.
5:47 AM 7:59 PM
Waning Gibbous, 85% visible
METAR KBNA 231353Z 00000KT 8SM FEW180 BKN220 BKN250 28/24 A3003 RMK AO2 SLP160 T02830239

10-Day Weather Forecast

Almanac

Astronomy

Jul. 23, 2016 Rise Set
Actual Time
Civil Twilight
Nautical Twilight
Astronomical Twilight
Moon
Length of Visible Light
Length of Day
Tomorrow will be .
, % of the Moon is Illuminated

Today's Extremes

State Highs State Lows

Community

WunderPhotos

Upload Photos

1,926,825 photos uploaded!

WunderBlog® & News

Nearby

Air Quality

  Air Quality AQ Index Pollutant
Not available.

Snow Depth

Station Depth Elevation

Earthquake Activity

City Distance Mag. Time & Date
Minimum magnitude displayed is 2.5.

Coastal Water Temperatures

Place Temperature

Stations

Nearby Weather Stations

Station Location Temp. Windchill Dew Point Humidity Wind Precip. Elev Updated Type
                   

Watches & Warnings

Heat Advisory
Issued: 2:13 AM CDT Jul. 23, 2016 – National Weather Service

... Heat advisory remains in effect until 8 PM CDT this evening...

* heat index values... around 105 during the afternoon.

* Impacts... prolonged exposure outside may cause heat related
illnesses such as heat exhaustion or heat stroke. Overnight
low temperatures will provide little relief from the heat.

Precautionary/preparedness actions...

A heat advisory means that a period of hot temperatures is
expected. The combination of hot temperatures and high humidity
will combine to create a situation in which heat illnesses are
possible. Drink plenty of fluids... stay in an air-conditioned
room... stay out of the sun... and check up on relatives and
neighbors.

Take extra precautions... if you work or spend time outside. When
possible... reschedule strenuous activities to early morning or
evening. Know the signs and symptoms of heat exhaustion and heat
stroke. Wear light weight and loose fitting clothing when
possible and drink plenty of water.